Rew, Pennsylvania
Current Conditions -  °F | °C
As of 3:53 AM on Friday 19 Dec 2014 (Local Time) from KBFD Reporting Station
Haze Haze  
Wind Chill: 15°   Ceiling: 1300
Heat Index: 26°   Visibility: 6mi
Dew Point: 22°   Wind: 13mph
Humidity: 84%   Direction: 310°NW
Pressure: 30"   Gusts: NA
Location:  41.9°N, 78.54°W
Report Text: KBFD 190853Z AUTO 31011KT 6SM BR OVC013 M03/M06 A3000 RMK AO2 SLP182 60000 I1001 I3002 T10331056 51002
Loading
Personal Weather Stations






























Interactive Weather Map New forecast layout! Learn more

10-Day Weather Forecast

Advertisements
Track Severe Weather on mobile